createdAt,value
2019-03-30T00:00:34.846Z,35.40
2019-03-30T00:03:05.595Z,36.23
2019-03-30T00:05:36.313Z,31.40
2019-03-30T00:08:07.003Z,36.23
2019-03-30T00:10:37.715Z,32.73
2019-03-30T00:13:08.415Z,38.57
2019-03-30T00:15:39.113Z,34.80
2019-03-30T00:18:09.893Z,35.53
2019-03-30T00:20:40.650Z,40.83
2019-03-30T00:23:11.476Z,38.00
2019-03-30T00:25:42.270Z,37.87
2019-03-30T00:28:13.045Z,39.23
2019-03-30T00:30:43.720Z,40.60
2019-03-30T00:33:14.433Z,41.67
2019-03-30T00:35:45.150Z,39.30
2019-03-30T00:38:15.877Z,40.20
2019-03-30T00:40:46.544Z,41.87
2019-03-30T00:43:17.178Z,45.73
2019-03-30T00:45:47.866Z,42.73
2019-03-30T00:48:18.575Z,43.80
2019-03-30T00:50:49.213Z,41.77
2019-03-30T00:53:19.929Z,43.30
2019-03-30T00:55:50.667Z,43.40
2019-03-30T00:58:25.499Z,37.97
2019-03-30T01:00:54.902Z,41.57
2019-03-30T01:03:25.718Z,40.57
2019-03-30T01:05:58.274Z,45.07
2019-03-30T01:08:28.841Z,40.43
2019-03-30T01:10:59.534Z,42.63
2019-03-30T01:13:31.279Z,41.50
2019-03-30T01:16:02.025Z,40.57
2019-03-30T01:18:32.822Z,41.50
2019-03-30T01:21:03.633Z,39.87
2019-03-30T01:23:34.347Z,38.30
2019-03-30T01:26:05.197Z,43.73
2019-03-30T01:28:36.029Z,40.20
2019-03-30T01:31:06.734Z,36.57
2019-03-30T01:33:37.473Z,37.97
2019-03-30T01:36:08.261Z,39.33
2019-03-30T01:38:39.018Z,39.13
2019-03-30T01:41:09.633Z,38.33
2019-03-30T01:43:40.354Z,35.87
2019-03-30T01:46:11.063Z,35.53
2019-03-30T01:48:41.964Z,38.57
2019-03-30T01:51:12.651Z,36.93
2019-03-30T01:53:43.403Z,35.03
2019-03-30T01:56:14.069Z,37.63
2019-03-30T01:58:44.846Z,34.80
2019-03-30T02:01:15.589Z,35.87
2019-03-30T02:03:46.242Z,38.33
2019-03-30T02:06:16.855Z,42.67
2019-03-30T02:08:47.550Z,34.47
2019-03-30T02:11:18.174Z,33.73
2019-03-30T02:13:49.741Z,33.53
2019-03-30T02:16:20.374Z,33.57
2019-03-30T02:18:51.123Z,34.70
2019-03-30T02:21:22.886Z,32.03
2019-03-30T02:23:53.600Z,33.93
2019-03-30T02:26:24.281Z,36.47
2019-03-30T02:28:54.982Z,35.37
2019-03-30T02:31:25.663Z,33.47
2019-03-30T02:33:56.472Z,32.50
2019-03-30T02:36:27.190Z,35.33
2019-03-30T02:38:57.885Z,32.83
2019-03-30T02:41:28.567Z,34.57
2019-03-30T02:43:59.355Z,36.33
2019-03-30T02:46:30.119Z,33.03
2019-03-30T02:49:00.900Z,33.57
2019-03-30T02:51:32.594Z,35.37
2019-03-30T02:54:03.403Z,32.83
2019-03-30T02:56:34.006Z,38.57
2019-03-30T02:59:04.711Z,31.53
2019-03-30T03:01:35.327Z,35.90
2019-03-30T03:04:06.134Z,33.10
2019-03-30T03:06:38.007Z,38.13
2019-03-30T03:09:10.359Z,36.00
2019-03-30T03:11:41.094Z,39.90
2019-03-30T03:14:12.417Z,37.40
2019-03-30T03:16:43.210Z,36.83
2019-03-30T03:19:13.851Z,37.37
2019-03-30T03:21:44.546Z,34.40
2019-03-30T03:24:15.185Z,34.77
2019-03-30T03:26:46.863Z,37.87
2019-03-30T03:29:17.592Z,37.37
2019-03-30T03:31:48.382Z,36.53
2019-03-30T03:34:19.231Z,37.47
2019-03-30T03:36:49.862Z,36.43
2019-03-30T03:39:20.714Z,40.57
2019-03-30T03:41:51.418Z,40.00
2019-03-30T03:44:22.189Z,34.90
2019-03-30T03:46:52.914Z,38.30
2019-03-30T03:49:23.589Z,35.67
2019-03-30T03:51:54.262Z,36.13
2019-03-30T03:54:24.985Z,34.97
2019-03-30T03:56:57.894Z,35.03
2019-03-30T03:59:29.732Z,39.67
2019-03-30T04:02:02.826Z,33.67
2019-03-30T04:04:36.167Z,40.53
2019-03-30T04:07:07.687Z,35.40
2019-03-30T04:09:41.064Z,40.20
2019-03-30T04:12:13.311Z,37.00
2019-03-30T04:14:49.491Z,34.93
2019-03-30T04:17:20.180Z,38.40
2019-03-30T04:19:50.910Z,36.50
2019-03-30T04:22:22.629Z,35.07
2019-03-30T04:24:53.451Z,36.20
2019-03-30T04:27:24.182Z,32.97
2019-03-30T04:29:54.913Z,35.63
2019-03-30T04:32:25.578Z,36.23
2019-03-30T04:34:56.352Z,33.13
2019-03-30T04:37:27.139Z,33.13
2019-03-30T04:39:57.883Z,36.13
2019-03-30T04:42:28.625Z,31.57
2019-03-30T04:44:59.340Z,36.10
2019-03-30T04:47:30.078Z,33.17
2019-03-30T04:50:00.757Z,35.83
2019-03-30T04:52:31.350Z,33.43
2019-03-30T04:55:01.988Z,31.63
2019-03-30T04:57:32.609Z,35.40
2019-03-30T05:00:03.266Z,33.03
2019-03-30T05:02:33.907Z,31.87
2019-03-30T05:05:04.675Z,32.00
2019-03-30T05:07:35.242Z,31.30
2019-03-30T05:10:06.937Z,32.77
2019-03-30T05:12:37.623Z,32.93
2019-03-30T05:15:09.465Z,33.20
2019-03-30T05:17:47.411Z,29.83
2019-03-30T05:20:12.646Z,29.73
2019-03-30T05:22:43.315Z,30.90
2019-03-30T05:25:14.091Z,33.13
2019-03-30T05:27:44.902Z,31.37
2019-03-30T05:30:15.631Z,35.20
2019-03-30T05:32:46.351Z,37.10
2019-03-30T05:35:17.085Z,30.53
2019-03-30T05:37:47.705Z,26.73
2019-03-30T05:40:23.442Z,27.13
2019-03-30T05:42:58.376Z,26.80
2019-03-30T05:45:31.567Z,26.43
2019-03-30T05:48:02.531Z,28.67
2019-03-30T05:50:33.218Z,31.03
2019-03-30T05:53:03.906Z,31.00
2019-03-30T05:55:35.731Z,30.03
2019-03-30T05:58:06.402Z,26.40
2019-03-30T06:00:37.129Z,29.07
2019-03-30T06:03:07.761Z,31.93
2019-03-30T06:05:38.573Z,31.30
2019-03-30T06:08:09.363Z,36.17
2019-03-30T06:10:40.169Z,35.40
2019-03-30T06:13:10.896Z,35.17
2019-03-30T06:15:41.690Z,31.57
2019-03-30T06:18:12.504Z,34.30
2019-03-30T06:20:43.287Z,31.47
2019-03-30T06:23:13.971Z,32.40
2019-03-30T06:25:44.799Z,29.20
2019-03-30T06:28:16.565Z,27.63
2019-03-30T06:30:48.442Z,24.43
2019-03-30T06:33:21.763Z,28.17
2019-03-30T06:35:55.164Z,27.63
2019-03-30T06:38:25.970Z,27.20
2019-03-30T06:40:56.744Z,26.80
2019-03-30T06:43:27.578Z,27.77
2019-03-30T06:45:58.390Z,26.20
2019-03-30T06:48:29.226Z,24.60
2019-03-30T06:51:00.024Z,25.00
2019-03-30T06:53:30.689Z,24.23
2019-03-30T06:56:01.462Z,22.87
2019-03-30T06:58:32.157Z,26.03
2019-03-30T07:01:03.036Z,24.10
2019-03-30T07:03:33.741Z,25.10
2019-03-30T07:06:06.698Z,23.03
2019-03-30T07:08:38.248Z,24.47
2019-03-30T07:11:21.131Z,24.50
2019-03-30T07:13:46.173Z,23.83
2019-03-30T07:16:16.885Z,26.43
2019-03-30T07:18:51.330Z,22.70
2019-03-30T07:21:22.076Z,28.20
2019-03-30T07:23:52.781Z,26.13
2019-03-30T07:26:23.579Z,29.90
2019-03-30T07:28:54.290Z,25.80
2019-03-30T07:31:24.989Z,27.30
2019-03-30T07:33:55.673Z,25.13
2019-03-30T07:36:26.390Z,25.60
2019-03-30T07:38:57.058Z,57.70
2019-03-30T07:41:27.771Z,28.67
2019-03-30T07:43:58.473Z,28.00
2019-03-30T07:46:29.278Z,28.00
2019-03-30T07:49:00.126Z,32.33
2019-03-30T07:51:33.356Z,26.00
2019-03-30T07:54:03.201Z,26.70
2019-03-30T07:56:33.986Z,25.07
2019-03-30T07:59:04.720Z,34.37
2019-03-30T08:01:36.374Z,29.03
2019-03-30T08:04:07.084Z,28.13
2019-03-30T08:06:37.858Z,28.13
2019-03-30T08:09:08.702Z,27.23
2019-03-30T08:11:39.369Z,38.60
2019-03-30T08:14:10.026Z,26.87
2019-03-30T08:16:40.799Z,29.23
2019-03-30T08:19:11.430Z,25.37
2019-03-30T08:21:42.130Z,31.03
2019-03-30T08:24:12.801Z,24.03
2019-03-30T08:26:43.506Z,25.77
2019-03-30T08:29:14.289Z,25.77
2019-03-30T08:31:44.989Z,25.30
2019-03-30T08:34:15.641Z,25.13
2019-03-30T08:36:46.333Z,25.43
2019-03-30T08:39:17.074Z,30.67
2019-03-30T08:41:47.802Z,23.53
2019-03-30T08:44:18.522Z,26.90
2019-03-30T08:46:49.256Z,24.73
2019-03-30T08:49:19.873Z,30.43
2019-03-30T08:51:50.647Z,32.30
2019-03-30T08:54:21.382Z,26.73
2019-03-30T08:56:53.110Z,28.07
2019-03-30T08:59:23.847Z,28.90
2019-03-30T09:01:54.528Z,29.40
2019-03-30T09:04:25.312Z,30.07
2019-03-30T09:06:55.982Z,29.10
2019-03-30T09:09:26.693Z,29.23
2019-03-30T09:11:57.457Z,30.83
2019-03-30T09:14:28.161Z,31.67
2019-03-30T09:16:58.850Z,34.80
2019-03-30T09:19:29.537Z,37.93
2019-03-30T09:22:00.262Z,31.07
2019-03-30T09:24:30.952Z,36.30
2019-03-30T09:27:01.654Z,32.00
2019-03-30T09:29:32.338Z,31.20
2019-03-30T09:32:13.676Z,32.50
2019-03-30T09:34:35.517Z,32.37
2019-03-30T09:37:07.351Z,36.80
2019-03-30T09:39:38.113Z,35.47
2019-03-30T09:42:08.862Z,35.23
2019-03-30T09:44:39.497Z,32.93
2019-03-30T09:47:10.251Z,35.73
2019-03-30T09:49:40.896Z,33.80
2019-03-30T09:52:11.753Z,34.50
2019-03-30T09:54:42.549Z,29.40
2019-03-30T09:57:13.466Z,31.67
2019-03-30T09:59:45.286Z,36.63
2019-03-30T10:02:16.038Z,32.47
2019-03-30T10:04:46.705Z,30.63
2019-03-30T10:07:17.613Z,29.90
2019-03-30T10:09:48.425Z,31.37
2019-03-30T10:12:19.248Z,30.80
2019-03-30T10:14:49.974Z,29.17
2019-03-30T10:17:20.754Z,30.00
2019-03-30T10:20:03.546Z,27.60
2019-03-30T10:22:24.099Z,24.83
2019-03-30T10:24:58.169Z,28.57
2019-03-30T10:27:27.170Z,23.33
2019-03-30T10:29:57.734Z,24.70
2019-03-30T10:32:28.633Z,24.07
2019-03-30T10:34:59.446Z,20.67
2019-03-30T10:37:30.128Z,25.43
2019-03-30T10:40:00.778Z,23.87
2019-03-30T10:42:31.464Z,20.90
2019-03-30T10:45:02.234Z,22.40
2019-03-30T10:47:33.135Z,20.87
2019-03-30T10:50:04.069Z,24.23
2019-03-30T10:52:35.661Z,21.20
2019-03-30T10:55:07.162Z,24.03
2019-03-30T10:57:37.823Z,23.23
2019-03-30T11:00:10.057Z,24.23
2019-03-30T11:02:40.993Z,20.73
2019-03-30T11:05:11.758Z,25.77
2019-03-30T11:07:42.622Z,25.83
2019-03-30T11:10:13.438Z,26.17
2019-03-30T11:12:44.174Z,22.87
2019-03-30T11:15:15.008Z,20.33
2019-03-30T11:17:45.858Z,23.70
2019-03-30T11:20:17.086Z,25.00
2019-03-30T11:22:47.974Z,20.93
2019-03-30T11:25:18.727Z,22.50
2019-03-30T11:27:49.587Z,27.47
2019-03-30T11:30:20.285Z,23.73
2019-03-30T11:32:50.989Z,20.97
2019-03-30T11:35:21.690Z,23.90
2019-03-30T11:37:52.533Z,23.07
2019-03-30T11:40:23.271Z,23.23
2019-03-30T11:42:53.984Z,19.23
2019-03-30T11:45:24.733Z,24.30
2019-03-30T11:47:55.457Z,23.40
2019-03-30T11:50:26.142Z,22.40
2019-03-30T11:52:56.857Z,23.37
2019-03-30T11:55:27.715Z,23.83
2019-03-30T11:57:58.614Z,24.13
2019-03-30T12:00:29.405Z,24.93
2019-03-30T12:03:00.225Z,23.90
2019-03-30T12:05:30.851Z,24.83
2019-03-30T12:08:01.558Z,25.67
2019-03-30T12:10:32.230Z,23.97
2019-03-30T12:13:02.901Z,26.87
2019-03-30T12:15:33.502Z,26.63
2019-03-30T12:18:04.249Z,25.23
2019-03-30T12:20:34.918Z,27.97
2019-03-30T12:23:05.579Z,24.50
2019-03-30T12:25:36.416Z,31.67
2019-03-30T12:28:07.145Z,22.33
2019-03-30T12:30:37.897Z,24.77
2019-03-30T12:33:08.613Z,23.73
2019-03-30T12:35:39.402Z,28.00
2019-03-30T12:38:10.050Z,24.83
2019-03-30T12:40:40.867Z,22.77
2019-03-30T12:43:11.778Z,24.07
2019-03-30T12:45:42.849Z,27.10
2019-03-30T12:48:13.585Z,21.70
2019-03-30T12:50:44.329Z,22.07
2019-03-30T12:53:15.090Z,23.13
2019-03-30T12:55:49.603Z,25.87
2019-03-30T12:58:18.351Z,24.27
2019-03-30T13:00:49.193Z,23.30
2019-03-30T13:03:19.972Z,26.67
2019-03-30T13:05:50.662Z,23.10
2019-03-30T13:08:21.517Z,23.20
2019-03-30T13:10:52.418Z,22.63
2019-03-30T13:13:23.197Z,24.20
2019-03-30T13:15:53.878Z,21.80
2019-03-30T13:18:24.635Z,24.47
2019-03-30T13:20:55.374Z,23.93
2019-03-30T13:23:26.025Z,26.33
2019-03-30T13:26:03.411Z,25.07
2019-03-30T13:28:29.125Z,24.00
2019-03-30T13:30:59.840Z,24.50
2019-03-30T13:33:30.597Z,22.70
2019-03-30T13:36:01.310Z,24.63
2019-03-30T13:38:32.035Z,24.63
2019-03-30T13:41:02.712Z,26.97
2019-03-30T13:43:33.618Z,26.03
2019-03-30T13:46:04.261Z,31.83
2019-03-30T13:48:34.957Z,23.03
2019-03-30T13:51:05.782Z,25.53
2019-03-30T13:53:36.518Z,21.97
2019-03-30T13:56:17.017Z,25.30
2019-03-30T13:58:39.699Z,27.00
2019-03-30T14:01:10.418Z,26.73
2019-03-30T14:03:41.194Z,26.93
2019-03-30T14:06:11.958Z,25.93
2019-03-30T14:08:44.158Z,26.40
2019-03-30T14:11:15.866Z,28.47
2019-03-30T14:13:46.665Z,26.63
2019-03-30T14:16:17.433Z,29.67
2019-03-30T14:18:48.205Z,28.47
2019-03-30T14:21:18.828Z,27.30
2019-03-30T14:23:49.446Z,31.17
2019-03-30T14:26:30.823Z,31.50
2019-03-30T14:28:52.626Z,27.63
2019-03-30T14:31:23.371Z,28.77
2019-03-30T14:33:53.966Z,29.73
2019-03-30T14:36:24.632Z,36.60
2019-03-30T14:38:55.532Z,31.13
2019-03-30T14:41:26.175Z,32.57
2019-03-30T14:43:56.841Z,33.93
2019-03-30T14:46:27.662Z,32.07
2019-03-30T14:48:58.446Z,31.77
2019-03-30T14:51:29.242Z,31.27
2019-03-30T14:53:59.987Z,35.13
2019-03-30T14:56:44.583Z,35.83
2019-03-30T14:59:10.025Z,36.70
2019-03-30T15:01:35.930Z,35.83
2019-03-30T15:04:06.626Z,36.70
2019-03-30T15:06:37.428Z,36.47
2019-03-30T15:09:08.798Z,39.57
2019-03-30T15:11:39.444Z,38.77
2019-03-30T15:14:10.310Z,33.87
2019-03-30T15:16:41.043Z,37.73
2019-03-30T15:19:11.718Z,53.20
2019-03-30T15:21:42.478Z,38.83
2019-03-30T15:24:13.249Z,40.90
2019-03-30T15:26:44.014Z,50.40
2019-03-30T15:29:14.601Z,46.70
2019-03-30T15:31:45.746Z,46.20
2019-03-30T15:34:16.662Z,48.60
2019-03-30T15:36:47.434Z,50.10
2019-03-30T15:39:18.326Z,49.80
2019-03-30T15:41:49.136Z,48.87
2019-03-30T15:44:19.989Z,51.40
2019-03-30T15:46:50.734Z,48.33
2019-03-30T15:49:21.405Z,54.57
2019-03-30T15:51:52.096Z,52.33
2019-03-30T15:54:22.829Z,50.90
2019-03-30T15:56:53.537Z,53.33
2019-03-30T15:59:24.243Z,54.67
2019-03-30T16:01:54.938Z,61.00
2019-03-30T16:04:26.017Z,55.80
2019-03-30T16:06:56.845Z,57.83
2019-03-30T16:09:28.544Z,59.30
2019-03-30T16:11:59.337Z,59.30
2019-03-30T16:14:30.167Z,76.57
2019-03-30T16:17:00.841Z,91.53
2019-03-30T16:19:32.649Z,77.80
2019-03-30T16:22:03.336Z,68.47
2019-03-30T16:24:34.138Z,74.87
2019-03-30T16:27:05.037Z,75.10
2019-03-30T16:29:35.800Z,73.40
2019-03-30T16:32:06.478Z,69.40
2019-03-30T16:34:37.125Z,71.13
2019-03-30T16:37:07.810Z,69.00
2019-03-30T16:39:38.657Z,77.03
2019-03-30T16:42:09.314Z,74.57
2019-03-30T16:44:40.022Z,76.77
2019-03-30T16:47:10.689Z,71.80
2019-03-30T16:49:41.441Z,74.17
2019-03-30T16:52:12.230Z,80.23
2019-03-30T16:54:42.913Z,82.17
2019-03-30T16:57:13.770Z,82.00
2019-03-30T16:59:44.518Z,74.23
2019-03-30T17:02:15.346Z,76.93
2019-03-30T17:04:46.022Z,87.97
2019-03-30T17:07:16.731Z,79.47
2019-03-30T17:09:48.354Z,78.77
2019-03-30T17:12:19.127Z,105.67
2019-03-30T17:14:49.974Z,82.63
2019-03-30T17:17:20.727Z,79.40
2019-03-30T17:19:52.594Z,76.97
2019-03-30T17:22:23.385Z,74.90
2019-03-30T17:24:54.037Z,74.07
2019-03-30T17:27:24.733Z,70.70
2019-03-30T17:29:55.470Z,74.80
2019-03-30T17:32:26.170Z,75.67
2019-03-30T17:34:57.031Z,80.07
2019-03-30T17:37:30.024Z,86.20
2019-03-30T17:40:00.977Z,91.93
2019-03-30T17:42:32.083Z,87.40
2019-03-30T17:45:03.003Z,94.13
2019-03-30T17:47:33.790Z,101.53
2019-03-30T17:50:06.470Z,108.20
2019-03-30T17:52:43.605Z,113.27
2019-03-30T17:55:14.582Z,122.90
2019-03-30T17:57:45.430Z,141.17
2019-03-30T18:00:18.346Z,136.63
2019-03-30T18:02:49.130Z,134.13
2019-03-30T18:05:21.041Z,131.53
2019-03-30T18:07:51.679Z,137.43
2019-03-30T18:10:23.315Z,139.00
2019-03-30T18:12:54.116Z,142.80
2019-03-30T18:15:25.647Z,142.67
2019-03-30T18:17:57.019Z,148.93
2019-03-30T18:20:28.149Z,138.10
2019-03-30T18:22:58.886Z,157.60
2019-03-30T18:25:30.262Z,147.13
2019-03-30T18:28:01.613Z,149.53
2019-03-30T18:30:37.852Z,147.40
2019-03-30T18:33:09.114Z,160.77
2019-03-30T18:35:41.346Z,151.23
2019-03-30T18:38:13.047Z,145.80
2019-03-30T18:40:44.178Z,152.40
2019-03-30T18:43:14.953Z,159.50
2019-03-30T18:45:45.782Z,183.30
2019-03-30T18:48:18.586Z,162.33
2019-03-30T18:50:49.609Z,189.50
2019-03-30T18:53:20.434Z,221.40
2019-03-30T18:55:51.414Z,297.63
2019-03-30T18:58:22.198Z,320.87
2019-03-30T19:00:52.933Z,310.07
2019-03-30T19:03:23.747Z,277.63
2019-03-30T19:05:54.690Z,235.73
2019-03-30T19:08:25.668Z,206.53
2019-03-30T19:10:56.332Z,208.93
2019-03-30T19:13:27.080Z,209.30
2019-03-30T19:15:57.914Z,211.17
2019-03-30T19:18:28.680Z,230.13
2019-03-30T19:21:06.963Z,209.83
2019-03-30T19:23:44.026Z,209.53
2019-03-30T19:26:14.821Z,206.97
2019-03-30T19:28:56.327Z,215.57
2019-03-30T19:31:18.014Z,219.67
2019-03-30T19:33:48.718Z,212.10
2019-03-30T19:36:19.535Z,218.63
2019-03-30T19:38:50.339Z,218.37
2019-03-30T19:41:22.261Z,198.00
2019-03-30T19:43:52.960Z,201.90
2019-03-30T19:46:26.512Z,195.60
2019-03-30T19:48:56.030Z,203.17
2019-03-30T19:51:26.775Z,202.13
2019-03-30T19:53:59.922Z,205.07
2019-03-30T19:56:29.878Z,198.77
2019-03-30T19:59:10.607Z,195.00
2019-03-30T20:01:33.050Z,196.97
2019-03-30T20:04:07.455Z,194.87
2019-03-30T20:06:36.447Z,195.60
2019-03-30T20:09:09.137Z,187.37
2019-03-30T20:11:41.379Z,184.30
2019-03-30T20:14:12.168Z,180.83
2019-03-30T20:16:43.146Z,193.17
2019-03-30T20:19:13.865Z,187.53
2019-03-30T20:21:44.618Z,178.70
2019-03-30T20:24:16.459Z,185.07
2019-03-30T20:26:47.198Z,186.20
2019-03-30T20:29:25.110Z,191.50
2019-03-30T20:31:51.492Z,205.43
2019-03-30T20:34:22.205Z,237.40
2019-03-30T20:36:52.817Z,221.07
2019-03-30T20:39:23.754Z,233.63
2019-03-30T20:41:54.487Z,219.77
2019-03-30T20:44:26.426Z,222.97
2019-03-30T20:46:58.222Z,244.47
2019-03-30T20:49:29.014Z,277.73
2019-03-30T20:51:59.720Z,253.10
2019-03-30T20:54:30.528Z,264.90
2019-03-30T20:57:02.507Z,265.03
2019-03-30T20:59:39.828Z,281.17
2019-03-30T21:02:05.614Z,261.47
2019-03-30T21:04:36.430Z,256.67
2019-03-30T21:07:07.196Z,253.90
2019-03-30T21:09:38.137Z,250.67
2019-03-30T21:12:09.012Z,252.50
2019-03-30T21:14:39.971Z,236.43
2019-03-30T21:17:10.727Z,222.70
2019-03-30T21:19:41.683Z,226.10
2019-03-30T21:22:12.686Z,216.93
2019-03-30T21:24:43.829Z,204.63
2019-03-30T21:27:14.741Z,197.73
2019-03-30T21:29:54.509Z,190.40
2019-03-30T21:32:19.295Z,193.13
2019-03-30T21:34:50.402Z,187.70
2019-03-30T21:37:21.324Z,190.57
2019-03-30T21:39:52.206Z,192.03
2019-03-30T21:42:23.026Z,187.23
2019-03-30T21:44:53.646Z,184.87
2019-03-30T21:47:24.446Z,191.83
2019-03-30T21:49:55.126Z,197.73
2019-03-30T21:52:25.864Z,195.10
2019-03-30T21:54:58.084Z,196.33
2019-03-30T21:57:28.866Z,232.07
2019-03-30T22:00:09.956Z,289.93
2019-03-30T22:02:32.354Z,329.63
2019-03-30T22:05:03.283Z,280.00
2019-03-30T22:07:34.656Z,270.40
2019-03-30T22:10:06.959Z,258.97
2019-03-30T22:12:41.798Z,261.37
2019-03-30T22:15:16.665Z,235.03
2019-03-30T22:17:47.342Z,220.27
2019-03-30T22:20:21.199Z,202.73
2019-03-30T22:22:50.546Z,221.67
2019-03-30T22:25:22.658Z,221.70
2019-03-30T22:27:53.329Z,227.10
2019-03-30T22:30:26.745Z,226.00
2019-03-30T22:32:57.522Z,224.67
2019-03-30T22:35:29.339Z,224.00
2019-03-30T22:38:01.198Z,211.67
2019-03-30T22:40:34.875Z,231.53
2019-03-30T22:43:08.563Z,220.80
2019-03-30T22:45:39.654Z,204.07
2019-03-30T22:48:10.323Z,222.33
2019-03-30T22:50:41.055Z,214.83
2019-03-30T22:53:11.911Z,211.10
2019-03-30T22:55:42.747Z,206.90
2019-03-30T22:58:13.472Z,212.53
2019-03-30T23:01:21.347Z,216.03
2019-03-30T23:03:52.198Z,200.93
2019-03-30T23:06:22.985Z,193.27
2019-03-30T23:08:53.825Z,212.67
2019-03-30T23:11:24.583Z,199.33
2019-03-30T23:13:56.291Z,188.57
2019-03-30T23:16:27.061Z,189.63
2019-03-30T23:18:57.825Z,188.03
2019-03-30T23:21:28.642Z,201.77
2019-03-30T23:23:59.499Z,201.47
2019-03-30T23:26:30.353Z,198.37
2019-03-30T23:29:01.007Z,197.17
2019-03-30T23:31:31.658Z,210.07
2019-03-30T23:34:02.400Z,188.63
2019-03-30T23:36:33.313Z,216.33
2019-03-30T23:39:06.190Z,208.63
2019-03-30T23:41:36.862Z,211.10
2019-03-30T23:44:07.502Z,203.60
2019-03-30T23:46:38.293Z,199.20
2019-03-30T23:49:08.958Z,187.90
2019-03-30T23:51:39.669Z,187.83
2019-03-30T23:54:14.205Z,190.20
2019-03-30T23:56:44.889Z,191.23
2019-03-30T23:59:15.514Z,179.00
